createdAt,value
2024-04-21T12:40:47.703Z,64.01
2024-04-21T12:43:51.547Z,62.96
2024-04-21T12:46:56.868Z,62.65
2024-04-21T12:49:59.630Z,62.35
2024-04-21T12:53:04.847Z,61.65
2024-04-21T12:56:10.910Z,61.11
2024-04-21T12:59:16.377Z,61.46
2024-04-21T13:02:22.174Z,61.91
2024-04-21T13:05:24.748Z,62.22
2024-04-21T13:08:31.388Z,62.62
2024-04-21T13:11:39.309Z,61.71
2024-04-21T13:14:44.825Z,61.94
2024-04-21T13:17:51.526Z,62.05
2024-04-21T13:20:54.154Z,61.90
2024-04-21T13:23:59.568Z,60.44
2024-04-21T13:27:05.021Z,59.69
2024-04-21T13:30:12.062Z,59.58
2024-04-21T13:33:17.487Z,58.80
2024-04-21T13:36:31.445Z,59.86
2024-04-21T13:39:40.158Z,60.41
2024-04-21T13:42:45.472Z,61.01
2024-04-21T13:45:53.239Z,59.94
2024-04-21T13:48:58.618Z,61.44
2024-04-21T13:52:04.111Z,61.15
2024-04-21T13:55:07.587Z,60.76
2024-04-21T13:58:18.539Z,60.84
2024-04-21T14:01:22.787Z,60.58
2024-04-21T14:04:28.259Z,60.38
2024-04-21T14:07:33.342Z,60.46
2024-04-21T14:10:38.784Z,61.49
2024-04-21T14:13:46.501Z,62.11
2024-04-21T14:16:51.694Z,61.53
2024-04-21T14:19:54.115Z,61.24
2024-04-21T14:22:59.196Z,61.49
2024-04-21T14:26:01.596Z,61.83
2024-04-21T14:29:09.902Z,61.64
2024-04-21T14:32:12.426Z,61.25
2024-04-21T14:35:17.559Z,61.33
2024-04-21T14:38:20.125Z,61.71
2024-04-21T14:41:25.325Z,64.12
2024-04-21T14:44:38.748Z,63.53
2024-04-21T14:47:45.973Z,63.84
2024-04-21T14:50:58.060Z,64.61
2024-04-21T14:54:00.868Z,65.09
2024-04-21T14:57:05.971Z,65.41
2024-04-21T15:00:13.349Z,65.88
2024-04-21T15:03:18.570Z,65.47
2024-04-21T15:06:21.172Z,66.13
2024-04-21T15:09:26.632Z,65.95
2024-04-21T15:12:31.827Z,67.42
2024-04-21T15:15:39.600Z,68.72
2024-04-21T15:18:42.041Z,68.75
2024-04-21T15:21:47.144Z,69.59
2024-04-21T15:24:49.713Z,70.48
2024-04-21T15:27:54.976Z,71.02
2024-04-21T15:31:01.087Z,71.75
2024-04-21T15:34:06.925Z,71.71
2024-04-21T15:37:09.404Z,71.44
2024-04-21T15:40:15.938Z,70.72
2024-04-21T15:43:21.121Z,69.13
2024-04-21T15:46:31.835Z,70.06
2024-04-21T15:49:37.366Z,70.08
2024-04-21T15:52:40.244Z,71.02
2024-04-21T15:55:47.200Z,69.73
2024-04-21T15:58:52.410Z,68.49
2024-04-21T16:02:00.191Z,68.65
2024-04-21T16:05:04.131Z,70.74
2024-04-21T16:08:10.228Z,70.17
2024-04-21T16:11:12.821Z,70.13
2024-04-21T16:14:18.303Z,70.79
2024-04-21T16:17:24.102Z,69.75
2024-04-21T16:20:29.485Z,69.60
2024-04-21T16:23:34.648Z,69.47
2024-04-21T16:26:39.756Z,68.94
2024-04-21T16:29:43.275Z,68.76
2024-04-21T16:32:51.210Z,67.63
2024-04-21T16:35:54.380Z,69.07
2024-04-21T16:39:00.016Z,69.45
2024-04-21T16:42:03.557Z,68.29
2024-04-21T16:45:13.135Z,67.86
2024-04-21T16:48:23.153Z,68.92
2024-04-21T16:51:30.345Z,68.67
2024-04-21T16:54:33.402Z,67.91
2024-04-21T16:57:41.027Z,67.12
2024-04-21T17:00:47.179Z,67.90
2024-04-21T17:03:53.156Z,66.48
2024-04-21T17:07:00.649Z,67.59
2024-04-21T17:10:03.932Z,67.34
2024-04-21T17:13:10.706Z,67.18
2024-04-21T17:16:15.905Z,66.93
2024-04-21T17:19:23.936Z,66.98
2024-04-21T17:22:29.301Z,67.60
2024-04-21T17:25:32.253Z,67.79
2024-04-21T17:28:38.019Z,67.38
2024-04-21T17:31:43.103Z,67.83
2024-04-21T17:34:51.489Z,67.99
2024-04-21T17:37:54.686Z,67.93
2024-04-21T17:41:00.328Z,67.58
2024-04-21T17:44:06.486Z,67.26
2024-04-21T17:47:11.701Z,67.05
2024-04-21T17:50:19.761Z,66.71
2024-04-21T17:53:22.659Z,66.90
2024-04-21T17:56:27.778Z,66.36
2024-04-21T17:59:33.356Z,67.04
2024-04-21T18:02:35.855Z,65.97
2024-04-21T18:05:44.035Z,66.69
2024-04-21T18:08:49.180Z,65.07
2024-04-21T18:11:51.597Z,66.36
2024-04-21T18:14:56.751Z,66.75
2024-04-21T18:18:02.120Z,66.54
2024-04-21T18:21:07.428Z,66.75
2024-04-21T18:24:14.228Z,65.75
2024-04-21T18:27:16.793Z,65.40
2024-04-21T18:30:21.924Z,65.09
2024-04-21T18:33:24.452Z,65.49
2024-04-21T18:36:32.214Z,64.92
2024-04-21T18:39:34.896Z,65.73
2024-04-21T18:42:40.059Z,65.67
2024-04-21T18:45:45.768Z,65.44
2024-04-21T18:48:53.648Z,65.54
2024-04-21T18:51:58.878Z,65.47
2024-04-21T18:56:24.303Z,65.10
2024-04-21T18:59:33.835Z,65.30
2024-04-21T19:02:37.034Z,64.87
2024-04-21T19:05:46.814Z,65.85
2024-04-21T19:09:25.292Z,64.43
2024-04-21T19:12:29.004Z,64.08
2024-04-21T19:15:36.852Z,64.93
2024-04-21T19:18:45.980Z,64.76
2024-04-21T19:22:24.188Z,65.15
2024-04-21T19:25:33.122Z,66.05
2024-04-21T19:28:40.101Z,66.32
2024-04-21T19:31:44.207Z,66.60
2024-04-21T19:34:49.495Z,65.84
2024-04-21T19:37:54.056Z,66.43
2024-04-21T19:41:01.980Z,66.34
2024-04-21T19:44:04.992Z,66.54
2024-04-21T19:47:10.430Z,66.59
2024-04-21T19:50:15.027Z,65.68
2024-04-21T19:53:22.417Z,65.51
2024-04-21T19:56:34.066Z,66.13
2024-04-21T19:59:36.700Z,67.35
2024-04-21T20:02:44.131Z,67.82
2024-04-21T20:05:46.642Z,67.67
2024-04-21T20:08:54.151Z,67.69
2024-04-21T20:12:02.184Z,68.70
2024-04-21T20:15:24.200Z,67.98
2024-04-21T20:18:41.690Z,67.89
2024-04-21T20:21:47.773Z,66.63
2024-04-21T20:24:55.539Z,67.09
2024-04-21T20:28:05.674Z,66.60
2024-04-21T20:31:11.373Z,66.65
2024-04-21T20:34:16.820Z,66.56
2024-04-21T20:37:19.544Z,67.30
2024-04-21T20:40:24.936Z,68.47
2024-04-21T20:43:31.346Z,67.53
2024-04-21T20:46:36.851Z,67.19
2024-04-21T20:49:39.506Z,66.11
2024-04-21T20:52:44.801Z,66.06
2024-04-21T20:55:47.524Z,66.89
2024-04-21T20:58:55.833Z,66.84
2024-04-21T21:02:01.242Z,65.10
2024-04-21T21:05:07.273Z,65.80
2024-04-21T21:08:10.139Z,65.92
2024-04-21T21:11:15.559Z,65.81
2024-04-21T21:14:20.839Z,66.18
2024-04-21T21:17:47.106Z,65.12
2024-04-21T21:20:55.922Z,65.86
2024-04-21T21:23:58.632Z,66.45
2024-04-21T21:27:03.686Z,65.28
2024-04-21T21:30:12.524Z,66.19
2024-04-21T21:33:15.282Z,66.88
2024-04-21T21:36:20.474Z,67.19
2024-04-21T21:39:23.053Z,67.76
2024-04-21T21:42:31.325Z,66.75
2024-04-21T21:45:41.123Z,66.59
2024-04-21T21:48:47.643Z,67.31
2024-04-21T21:51:50.916Z,67.02
2024-04-21T21:54:56.129Z,67.31
2024-04-21T21:57:58.560Z,66.63
2024-04-21T22:01:07.210Z,66.51
2024-04-21T22:04:12.866Z,66.77
2024-04-21T22:07:18.145Z,67.20
2024-04-21T22:10:26.053Z,65.41
2024-04-21T22:13:31.398Z,65.43
2024-04-21T22:16:39.177Z,66.07
2024-04-21T22:19:44.475Z,65.33
2024-04-21T22:22:50.698Z,66.41
2024-04-21T22:25:57.488Z,66.32
2024-04-21T22:29:00.402Z,66.81
2024-04-21T22:32:08.971Z,66.17
2024-04-21T22:35:11.545Z,66.62
2024-04-21T22:38:16.800Z,66.23
2024-04-21T22:41:19.386Z,65.69
2024-04-21T22:44:24.965Z,65.02
2024-04-21T22:47:30.602Z,64.85
2024-04-21T22:50:35.860Z,65.67
2024-04-21T22:53:38.506Z,65.12
2024-04-21T22:56:43.969Z,65.47
2024-04-21T22:59:49.171Z,66.39
2024-04-21T23:02:55.144Z,66.40
2024-04-21T23:06:04.150Z,66.51
2024-04-21T23:09:06.707Z,67.74
2024-04-21T23:12:12.058Z,67.12
2024-04-21T23:15:14.756Z,68.23
2024-04-21T23:18:22.812Z,68.57
2024-04-21T23:21:25.377Z,68.01
2024-04-21T23:24:30.610Z,68.18
2024-04-21T23:27:33.187Z,67.69
2024-04-21T23:30:38.467Z,66.53
2024-04-21T23:33:43.740Z,66.57
2024-04-21T23:36:48.935Z,67.25
2024-04-21T23:39:54.492Z,66.51
2024-04-21T23:43:00.177Z,67.15
2024-04-21T23:46:04.815Z,67.19
2024-04-21T23:49:13.077Z,68.50
2024-04-21T23:52:16.121Z,69.20
2024-04-21T23:55:21.647Z,69.19
2024-04-21T23:58:26.385Z,68.02
